Time;durP1;ratioP1;P1;durP2;ratioP2;P2;SDS_P1;SDS_P2;PMS_P1;PMS_P2;Temp;Humidity;BMP_temperature;BMP_pressure;BME280_temperature;BME280_humidity;BME280_pressure;Samples;Min_cycle;Max_cycle;Signal;HPM_P1;HPM_P2
2021/12/11 00:00:28;;;;;;;8.73;5.30;;;;;;;;;;1924654;74;21076;-43
2021/12/11 00:02:58;;;;;;;7.62;5.35;;;;;;;;;;1924619;74;21042;-42
2021/12/11 00:05:28;;;;;;;8.90;5.60;;;;;;;;;;1924760;74;21038;-41
2021/12/11 00:07:56;;;;;;;8.80;5.85;;;;;;;;;;1924639;74;21042;-42
2021/12/11 00:10:26;;;;;;;8.38;5.42;;;;;;;;;;1924809;74;21026;-42
2021/12/11 00:12:56;;;;;;;11.03;5.28;;;;;;;;;;1924882;74;20999;-41
2021/12/11 00:15:26;;;;;;;8.40;5.50;;;;;;;;;;1924915;74;21445;-42
2021/12/11 00:17:59;;;;;;;8.80;5.03;;;;;;;;;;1924852;74;21031;-42
2021/12/11 00:20:29;;;;;;;7.20;5.00;;;;;;;;;;1924491;74;21028;-41
2021/12/11 00:22:59;;;;;;;9.68;5.80;;;;;;;;;;1924854;74;21022;-41
2021/12/11 00:25:28;;;;;;;16.10;6.20;;;;;;;;;;1924755;74;21102;-42
2021/12/11 00:28:03;;;;;;;10.68;5.80;;;;;;;;;;1924836;74;21151;-42
2021/12/11 00:30:35;;;;;;;8.78;6.58;;;;;;;;;;1924745;74;21109;-42
2021/12/11 00:33:11;;;;;;;8.08;5.47;;;;;;;;;;1924638;74;21272;-42
2021/12/11 00:35:40;;;;;;;10.45;6.10;;;;;;;;;;1924764;74;21027;-41
2021/12/11 00:38:11;;;;;;;7.85;5.60;;;;;;;;;;1924727;74;21161;-41
2021/12/11 00:40:41;;;;;;;10.53;6.20;;;;;;;;;;1921492;74;21112;-42
2021/12/11 00:43:15;;;;;;;16.40;6.50;;;;;;;;;;1924639;74;21081;-41
2021/12/11 00:45:41;;;;;;;10.95;6.60;;;;;;;;;;1924525;74;21124;-41
2021/12/11 00:48:11;;;;;;;8.45;5.95;;;;;;;;;;1924626;74;21007;-41
2021/12/11 00:50:41;;;;;;;8.50;6.10;;;;;;;;;;1924733;74;21406;-42
2021/12/11 00:53:11;;;;;;;9.68;6.60;;;;;;;;;;1921666;74;21092;-42
2021/12/11 00:55:41;;;;;;;13.83;6.37;;;;;;;;;;1924710;74;21043;-41
2021/12/11 00:58:26;;;;;;;14.68;7.35;;;;;;;;;;1924627;74;21092;-41
2021/12/11 01:00:56;;;;;;;14.47;7.28;;;;;;;;;;1924811;74;21093;-42
2021/12/11 01:03:38;;;;;;;10.38;6.87;;;;;;;;;;1924808;74;21066;-41
2021/12/11 01:06:08;;;;;;;13.70;6.80;;;;;;;;;;1924819;74;21007;-42
2021/12/11 01:08:39;;;;;;;15.43;8.50;;;;;;;;;;1924822;74;21106;-41
2021/12/11 01:11:15;;;;;;;13.18;7.97;;;;;;;;;;1924799;74;21026;-41
2021/12/11 01:13:45;;;;;;;12.43;8.25;;;;;;;;;;1924462;74;20999;-42
2021/12/11 01:16:15;;;;;;;13.95;8.80;;;;;;;;;;1924724;74;21042;-41
2021/12/11 01:18:45;;;;;;;10.53;8.55;;;;;;;;;;1924670;74;21022;-42
2021/12/11 01:21:29;;;;;;;18.73;8.58;;;;;;;;;;1924699;74;21094;-42
2021/12/11 01:24:43;;;;;;;15.18;8.23;;;;;;;;;;1924306;74;21082;-41
2021/12/11 01:26:26;;;;;;;11.85;8.23;;;;;;;;;;1884138;74;21468;-41
2021/12/11 01:28:55;;;;;;;17.95;8.53;;;;;;;;;;1924838;74;21035;-41
2021/12/11 01:31:24;;;;;;;21.70;8.55;;;;;;;;;;1924743;74;21070;-42
2021/12/11 01:33:54;;;;;;;13.03;8.73;;;;;;;;;;1924718;74;21088;-42
2021/12/11 01:36:23;;;;;;;13.43;7.50;;;;;;;;;;1924854;74;21092;-41
2021/12/11 01:38:56;;;;;;;13.20;7.87;;;;;;;;;;1924791;74;21023;-41
2021/12/11 01:41:25;;;;;;;11.55;6.62;;;;;;;;;;1924816;74;21602;-42
2021/12/11 01:43:54;;;;;;;12.10;6.75;;;;;;;;;;1924654;74;21096;-41
2021/12/11 01:46:25;;;;;;;10.72;7.12;;;;;;;;;;1906333;74;21090;-41
2021/12/11 01:48:58;;;;;;;15.65;8.40;;;;;;;;;;1905510;75;21073;-42
2021/12/11 01:51:28;;;;;;;15.00;8.23;;;;;;;;;;1905450;75;21081;-40
2021/12/11 01:53:59;;;;;;;13.08;7.55;;;;;;;;;;1902463;74;21085;-40
2021/12/11 01:56:28;;;;;;;13.80;9.25;;;;;;;;;;1905171;74;20995;-41
2021/12/11 01:58:59;;;;;;;11.53;8.00;;;;;;;;;;1905429;75;21007;-41
2021/12/11 02:01:29;;;;;;;11.57;8.05;;;;;;;;;;1903191;74;21077;-41
2021/12/11 02:03:58;;;;;;;9.48;7.67;;;;;;;;;;1905332;75;21019;-41
2021/12/11 02:06:28;;;;;;;8.83;7.25;;;;;;;;;;1905394;75;20999;-40
2021/12/11 02:08:57;;;;;;;17.67;8.33;;;;;;;;;;1905509;75;20996;-40
2021/12/11 02:11:29;;;;;;;13.58;8.13;;;;;;;;;;1905365;75;21079;-41
2021/12/11 02:13:59;;;;;;;13.28;7.80;;;;;;;;;;1905573;75;21125;-40
2021/12/11 02:16:29;;;;;;;13.62;7.87;;;;;;;;;;1905388;75;21016;-40
2021/12/11 02:18:59;;;;;;;9.70;7.42;;;;;;;;;;1904761;74;21055;-40
2021/12/11 02:21:29;;;;;;;13.78;8.18;;;;;;;;;;1905425;74;21077;-41
2021/12/11 02:24:05;;;;;;;15.90;8.13;;;;;;;;;;1905401;75;21012;-41
2021/12/11 02:26:35;;;;;;;15.40;7.55;;;;;;;;;;1905363;74;21051;-41
2021/12/11 02:29:05;;;;;;;14.03;7.65;;;;;;;;;;1905415;75;21541;-41
2021/12/11 02:31:38;;;;;;;18.37;7.55;;;;;;;;;;1905259;75;21104;-41
2021/12/11 02:34:09;;;;;;;18.15;6.90;;;;;;;;;;1905172;75;21019;-41
2021/12/11 02:36:39;;;;;;;21.57;8.73;;;;;;;;;;1904816;75;21024;-41
2021/12/11 02:39:09;;;;;;;16.67;7.85;;;;;;;;;;1886678;75;21094;-40
2021/12/11 02:41:39;;;;;;;22.62;7.10;;;;;;;;;;1905152;74;21020;-41
2021/12/11 02:44:10;;;;;;;15.08;7.62;;;;;;;;;;1905157;74;21055;-40
2021/12/11 02:46:49;;;;;;;8.23;5.90;;;;;;;;;;1922903;74;21457;-41
2021/12/11 02:49:19;;;;;;;21.37;7.28;;;;;;;;;;1924648;74;21098;-41
2021/12/11 02:51:49;;;;;;;19.00;7.83;;;;;;;;;;1924821;74;21120;-41
2021/12/11 02:54:19;;;;;;;12.20;5.83;;;;;;;;;;1924137;74;21104;-41
2021/12/11 02:56:49;;;;;;;9.83;5.87;;;;;;;;;;1923607;74;21050;-41
2021/12/11 02:59:22;;;;;;;13.22;6.42;;;;;;;;;;1924782;74;20991;-41
2021/12/11 03:01:51;;;;;;;13.62;6.53;;;;;;;;;;1924696;74;21489;-41
2021/12/11 03:04:31;;;;;;;18.17;8.03;;;;;;;;;;1924819;74;21015;-40
2021/12/11 03:06:52;;;;;;;17.32;6.62;;;;;;;;;;1923497;74;21031;-41
2021/12/11 03:09:22;;;;;;;20.85;8.85;;;;;;;;;;1924670;74;21603;-41
2021/12/11 03:11:53;;;;;;;20.97;7.40;;;;;;;;;;1924682;74;21023;-41
2021/12/11 03:14:23;;;;;;;10.53;6.78;;;;;;;;;;1924674;74;21023;-40
2021/12/11 03:16:52;;;;;;;16.85;6.40;;;;;;;;;;1924677;74;21023;-41
2021/12/11 03:19:23;;;;;;;12.80;7.42;;;;;;;;;;1924673;74;21086;-41
2021/12/11 03:21:52;;;;;;;12.85;6.80;;;;;;;;;;1924675;74;21199;-41
2021/12/11 03:24:21;;;;;;;9.95;7.00;;;;;;;;;;1924711;74;20991;-41
2021/12/11 03:26:51;;;;;;;12.90;6.83;;;;;;;;;;1924661;74;21026;-40
2021/12/11 03:29:20;;;;;;;11.75;7.25;;;;;;;;;;1924659;74;21011;-40
2021/12/11 03:31:49;;;;;;;11.63;7.03;;;;;;;;;;1924725;74;21084;-41
2021/12/11 03:34:19;;;;;;;16.40;7.67;;;;;;;;;;1924616;74;21092;-41
2021/12/11 03:36:48;;;;;;;16.05;7.40;;;;;;;;;;1924648;74;21088;-41
2021/12/11 03:39:18;;;;;;;15.90;6.83;;;;;;;;;;1924785;74;21011;-40
2021/12/11 03:41:48;;;;;;;16.15;8.13;;;;;;;;;;1924700;74;21022;-41
2021/12/11 03:44:17;;;;;;;11.20;6.53;;;;;;;;;;1924737;74;21512;-41
2021/12/11 03:46:47;;;;;;;13.22;7.25;;;;;;;;;;1924681;74;21062;-40
2021/12/11 03:49:17;;;;;;;20.12;8.38;;;;;;;;;;1924708;74;21023;-40
2021/12/11 03:51:47;;;;;;;17.42;7.05;;;;;;;;;;1924654;74;21043;-41
2021/12/11 03:54:17;;;;;;;15.08;8.10;;;;;;;;;;1924581;74;21058;-40
2021/12/11 03:56:45;;;;;;;15.03;7.85;;;;;;;;;;1924554;74;21062;-41
2021/12/11 03:59:15;;;;;;;15.98;7.65;;;;;;;;;;1924460;74;21088;-40
2021/12/11 04:01:44;;;;;;;16.77;8.43;;;;;;;;;;1924630;74;21029;-40
2021/12/11 04:04:14;;;;;;;15.20;7.25;;;;;;;;;;1924629;74;21061;-40
2021/12/11 04:06:43;;;;;;;16.42;8.68;;;;;;;;;;1923436;74;21014;-40
2021/12/11 04:09:13;;;;;;;20.35;8.88;;;;;;;;;;1924501;74;21010;-40
2021/12/11 04:11:42;;;;;;;22.65;9.30;;;;;;;;;;1924581;74;20995;-41
2021/12/11 04:14:12;;;;;;;20.30;9.58;;;;;;;;;;1924511;74;21088;-40
2021/12/11 04:16:41;;;;;;;24.67;10.72;;;;;;;;;;1923547;74;21026;-40
2021/12/11 04:19:11;;;;;;;21.05;10.40;;;;;;;;;;1924565;74;21022;-40
2021/12/11 04:21:41;;;;;;;23.67;10.63;;;;;;;;;;1924520;74;21089;-40
2021/12/11 04:24:10;;;;;;;25.88;10.65;;;;;;;;;;1924642;74;21048;-40
2021/12/11 04:26:39;;;;;;;25.00;12.20;;;;;;;;;;1924543;74;21031;-40
2021/12/11 04:29:07;;;;;;;22.32;9.80;;;;;;;;;;1924570;74;21100;-41
2021/12/11 04:31:37;;;;;;;19.05;10.28;;;;;;;;;;1924506;74;21003;-40
2021/12/11 04:34:12;;;;;;;23.38;10.82;;;;;;;;;;1924806;74;21168;-41
2021/12/11 04:36:37;;;;;;;20.92;10.43;;;;;;;;;;1922991;74;21148;-41
2021/12/11 04:39:07;;;;;;;27.73;11.12;;;;;;;;;;1923838;74;21050;-41
2021/12/11 04:41:42;;;;;;;21.20;9.65;;;;;;;;;;1924603;74;21003;-40
2021/12/11 04:44:11;;;;;;;21.55;10.63;;;;;;;;;;1924123;74;21100;-41
2021/12/11 04:46:40;;;;;;;19.87;10.60;;;;;;;;;;1924165;74;21034;-41
2021/12/11 04:49:16;;;;;;;22.67;11.20;;;;;;;;;;1924606;74;21115;-41
2021/12/11 04:54:37;;;;;;;21.05;12.20;;;;;;;;;;1924606;74;21010;-40
2021/12/11 05:05:12;;;;;;;23.30;12.40;;;;;;;;;;1924605;74;21136;-42
2021/12/11 05:07:36;;;;;;;24.97;11.27;;;;;;;;;;1922954;74;21147;-42
2021/12/11 05:10:11;;;;;;;24.80;13.22;;;;;;;;;;1923716;74;21473;-42
2021/12/11 05:15:01;;;;;;;19.10;11.20;;;;;;;;;;1924679;74;21529;-42
2021/12/11 05:17:30;;;;;;;21.75;11.38;;;;;;;;;;1924642;74;20996;-42
2021/12/11 05:19:59;;;;;;;24.18;12.70;;;;;;;;;;1924497;74;21088;-42
2021/12/11 05:22:28;;;;;;;25.43;13.53;;;;;;;;;;1924522;74;20994;-43
2021/12/11 05:24:58;;;;;;;21.15;12.68;;;;;;;;;;1924600;74;21026;-42
2021/12/11 05:27:27;;;;;;;22.58;12.40;;;;;;;;;;1924524;74;21046;-42
2021/12/11 05:29:56;;;;;;;23.12;13.05;;;;;;;;;;1924598;74;21093;-41
2021/12/11 05:32:26;;;;;;;25.72;12.45;;;;;;;;;;1924532;74;21101;-43
2021/12/11 05:34:54;;;;;;;30.43;13.05;;;;;;;;;;1924545;74;21089;-42
2021/12/11 05:37:23;;;;;;;22.75;11.38;;;;;;;;;;1924497;74;21011;-42
2021/12/11 05:39:52;;;;;;;20.95;10.98;;;;;;;;;;1924511;74;21031;-42
2021/12/11 05:42:21;;;;;;;23.40;11.80;;;;;;;;;;1924483;74;21026;-42
2021/12/11 05:44:49;;;;;;;24.47;12.65;;;;;;;;;;1924480;74;21024;-41
2021/12/11 05:47:20;;;;;;;20.02;12.68;;;;;;;;;;1924485;74;21125;-41
2021/12/11 05:49:49;;;;;;;21.30;13.40;;;;;;;;;;1924684;74;21167;-41
2021/12/11 05:52:18;;;;;;;31.30;14.07;;;;;;;;;;1924604;74;21026;-41
2021/12/11 05:54:47;;;;;;;23.42;12.78;;;;;;;;;;1924665;74;21035;-41
2021/12/11 05:57:17;;;;;;;22.48;13.05;;;;;;;;;;1924605;74;21074;-40
2021/12/11 05:59:47;;;;;;;21.80;11.80;;;;;;;;;;1924612;74;21085;-40
2021/12/11 06:02:23;;;;;;;21.07;12.33;;;;;;;;;;1924549;74;21516;-40
2021/12/11 06:04:53;;;;;;;23.60;11.85;;;;;;;;;;1924187;74;21018;-41
2021/12/11 06:07:22;;;;;;;28.98;12.20;;;;;;;;;;1924742;74;20991;-41
2021/12/11 06:09:52;;;;;;;18.75;10.05;;;;;;;;;;1924805;74;21030;-40
2021/12/11 06:12:21;;;;;;;18.92;10.43;;;;;;;;;;1924614;74;20987;-41
2021/12/11 06:14:50;;;;;;;19.15;10.68;;;;;;;;;;1924678;74;21186;-41
2021/12/11 06:17:20;;;;;;;22.25;11.83;;;;;;;;;;1924639;74;21082;-41
2021/12/11 06:19:52;;;;;;;31.07;14.47;;;;;;;;;;1924726;74;21068;-41
2021/12/11 06:22:21;;;;;;;25.57;12.25;;;;;;;;;;1924841;74;21501;-41
2021/12/11 06:24:50;;;;;;;27.20;12.95;;;;;;;;;;1924694;74;21031;-41
2021/12/11 06:27:19;;;;;;;24.55;12.03;;;;;;;;;;1924802;74;21104;-41
2021/12/11 06:29:48;;;;;;;24.87;11.63;;;;;;;;;;1924797;74;21096;-41
2021/12/11 06:32:18;;;;;;;22.10;11.65;;;;;;;;;;1924863;74;21038;-42
2021/12/11 06:34:46;;;;;;;23.45;11.10;;;;;;;;;;1924805;74;21042;-43
2021/12/11 06:37:16;;;;;;;21.75;13.05;;;;;;;;;;1924865;74;20998;-41
2021/12/11 06:39:45;;;;;;;23.70;11.88;;;;;;;;;;1924808;74;21030;-41
2021/12/11 06:42:14;;;;;;;26.68;12.47;;;;;;;;;;1924814;74;21102;-42
2021/12/11 06:44:42;;;;;;;23.10;11.48;;;;;;;;;;1924787;74;21034;-41
2021/12/11 06:47:13;;;;;;;24.82;13.35;;;;;;;;;;1924587;74;21034;-41
2021/12/11 06:49:42;;;;;;;22.10;11.15;;;;;;;;;;1924763;74;21018;-42
2021/12/11 06:52:12;;;;;;;24.75;12.20;;;;;;;;;;1924558;74;21031;-42
2021/12/11 06:54:41;;;;;;;25.35;12.80;;;;;;;;;;1924796;74;21089;-42
2021/12/11 06:57:10;;;;;;;28.75;11.97;;;;;;;;;;1924664;74;21007;-41
2021/12/11 06:59:39;;;;;;;23.65;11.45;;;;;;;;;;1924644;74;21034;-41
2021/12/11 07:02:08;;;;;;;27.62;13.83;;;;;;;;;;1924620;74;21035;-42
2021/12/11 07:04:37;;;;;;;23.80;12.13;;;;;;;;;;1924732;74;21113;-42
2021/12/11 07:07:06;;;;;;;18.80;10.08;;;;;;;;;;1924733;74;21310;-42
2021/12/11 07:09:35;;;;;;;24.47;14.23;;;;;;;;;;1924616;74;21007;-41
2021/12/11 07:12:04;;;;;;;19.15;11.68;;;;;;;;;;1924762;74;21084;-42
2021/12/11 07:14:33;;;;;;;21.80;12.93;;;;;;;;;;1924610;74;21035;-41
2021/12/11 07:17:02;;;;;;;24.27;13.05;;;;;;;;;;1924581;74;21031;-41
2021/12/11 07:19:31;;;;;;;43.23;21.00;;;;;;;;;;1924765;74;21077;-41
2021/12/11 07:21:59;;;;;;;21.42;12.53;;;;;;;;;;1924698;74;21100;-41
2021/12/11 07:24:32;;;;;;;19.25;11.60;;;;;;;;;;1924596;74;21096;-41
2021/12/11 07:27:01;;;;;;;26.35;12.85;;;;;;;;;;1924396;74;21046;-42
2021/12/11 07:29:30;;;;;;;20.17;11.40;;;;;;;;;;1924632;74;21097;-41
2021/12/11 07:32:00;;;;;;;20.77;12.65;;;;;;;;;;1924596;74;21026;-41
2021/12/11 07:34:28;;;;;;;24.25;12.85;;;;;;;;;;1924569;74;21026;-40
2021/12/11 07:36:58;;;;;;;19.50;12.53;;;;;;;;;;1924163;74;21023;-40
2021/12/11 07:39:26;;;;;;;34.10;13.38;;;;;;;;;;1924630;74;21038;-41
2021/12/11 07:41:56;;;;;;;25.72;13.28;;;;;;;;;;1924528;74;21035;-41
2021/12/11 07:44:25;;;;;;;32.67;16.07;;;;;;;;;;1924756;74;21002;-40
2021/12/11 07:46:55;;;;;;;25.85;14.53;;;;;;;;;;1924505;74;21093;-40
2021/12/11 07:49:24;;;;;;;25.68;12.55;;;;;;;;;;1924661;74;21022;-40
2021/12/11 07:51:53;;;;;;;23.50;12.30;;;;;;;;;;1924806;74;21073;-40
2021/12/11 07:54:22;;;;;;;26.68;14.23;;;;;;;;;;1924832;74;21107;-40
2021/12/11 07:56:53;;;;;;;25.20;14.05;;;;;;;;;;1924622;74;21030;-41
2021/12/11 07:59:21;;;;;;;25.37;13.88;;;;;;;;;;1924794;74;21516;-41
2021/12/11 08:01:52;;;;;;;22.73;13.08;;;;;;;;;;1924577;74;21089;-40
2021/12/11 08:04:21;;;;;;;30.30;14.85;;;;;;;;;;1924690;74;21081;-40
2021/12/11 08:06:51;;;;;;;28.92;13.72;;;;;;;;;;1924653;74;21018;-40
2021/12/11 08:09:20;;;;;;;24.87;14.00;;;;;;;;;;1924634;74;21019;-40
2021/12/11 08:11:49;;;;;;;23.77;13.30;;;;;;;;;;1924627;74;21019;-40
2021/12/11 08:14:18;;;;;;;24.77;14.70;;;;;;;;;;1924613;74;21097;-40
2021/12/11 08:16:48;;;;;;;22.45;13.68;;;;;;;;;;1924594;74;21136;-40
2021/12/11 08:19:18;;;;;;;24.32;14.53;;;;;;;;;;1924689;74;21034;-40
2021/12/11 08:21:47;;;;;;;33.83;16.87;;;;;;;;;;1924673;74;21119;-40
2021/12/11 08:24:16;;;;;;;33.40;17.42;;;;;;;;;;1924588;74;21084;-40
2021/12/11 08:26:45;;;;;;;29.30;15.03;;;;;;;;;;1924577;74;21030;-40
2021/12/11 08:29:15;;;;;;;31.02;13.72;;;;;;;;;;1924539;74;21562;-40
2021/12/11 08:31:44;;;;;;;49.50;16.93;;;;;;;;;;1924404;74;21031;-40
2021/12/11 08:34:13;;;;;;;38.70;15.70;;;;;;;;;;1924434;74;21505;-40
2021/12/11 08:36:43;;;;;;;29.70;15.43;;;;;;;;;;1924477;74;21061;-40
2021/12/11 08:39:13;;;;;;;35.88;15.75;;;;;;;;;;1924483;74;21022;-40
2021/12/11 08:41:42;;;;;;;26.55;14.33;;;;;;;;;;1924412;74;21513;-40
2021/12/11 08:44:13;;;;;;;22.25;12.28;;;;;;;;;;1924334;74;21002;-40
2021/12/11 08:46:43;;;;;;;29.92;14.40;;;;;;;;;;1924428;74;21039;-40
2021/12/11 08:49:13;;;;;;;35.35;14.47;;;;;;;;;;1924369;74;21054;-40
2021/12/11 08:51:55;;;;;;;28.52;15.10;;;;;;;;;;1924441;74;21027;-40
2021/12/11 08:54:25;;;;;;;26.02;14.07;;;;;;;;;;1924488;74;21010;-40
2021/12/11 08:56:54;;;;;;;27.40;13.88;;;;;;;;;;1924426;74;21018;-41
2021/12/11 08:59:24;;;;;;;26.12;13.58;;;;;;;;;;1924478;74;21089;-40
2021/12/11 09:01:57;;;;;;;30.75;14.60;;;;;;;;;;1924163;74;21022;-41
2021/12/11 09:04:27;;;;;;;31.05;14.98;;;;;;;;;;1924519;74;21291;-41
2021/12/11 09:07:00;;;;;;;26.40;13.95;;;;;;;;;;1924552;74;21327;-41
2021/12/11 09:09:29;;;;;;;31.00;14.43;;;;;;;;;;1924451;74;21042;-39
2021/12/11 09:11:59;;;;;;;23.47;14.53;;;;;;;;;;1924392;74;21473;-40
2021/12/11 09:14:48;;;;;;;27.00;14.95;;;;;;;;;;1924153;74;21066;-40
2021/12/11 09:17:19;;;;;;;30.52;16.27;;;;;;;;;;1924397;74;21062;-40
2021/12/11 09:19:55;;;;;;;27.93;15.55;;;;;;;;;;1924122;74;21102;-40
2021/12/11 09:22:24;;;;;;;34.65;16.30;;;;;;;;;;1924489;74;21090;-40
2021/12/11 09:24:55;;;;;;;28.32;16.27;;;;;;;;;;1924588;74;20995;-41
2021/12/11 09:27:34;;;;;;;27.73;13.60;;;;;;;;;;1924604;74;21100;-40
2021/12/11 09:30:07;;;;;;;27.60;15.43;;;;;;;;;;1924185;74;21081;-40
2021/12/11 09:32:36;;;;;;;33.28;15.98;;;;;;;;;;1924434;74;21120;-40
2021/12/11 09:35:09;;;;;;;30.23;16.20;;;;;;;;;;1924542;74;21476;-40
2021/12/11 09:37:39;;;;;;;29.32;16.45;;;;;;;;;;1924732;74;21010;-41
2021/12/11 09:40:09;;;;;;;33.05;16.48;;;;;;;;;;1924526;74;21074;-40
2021/12/11 09:42:37;;;;;;;28.23;14.73;;;;;;;;;;1924618;74;21070;-40
2021/12/11 09:45:07;;;;;;;28.52;13.75;;;;;;;;;;1924580;74;21124;-41
2021/12/11 09:47:40;;;;;;;23.52;13.68;;;;;;;;;;1924526;74;21026;-40
2021/12/11 09:50:09;;;;;;;32.17;14.00;;;;;;;;;;1924498;74;21489;-40
2021/12/11 09:52:40;;;;;;;19.10;12.33;;;;;;;;;;1923458;74;21062;-40
2021/12/11 09:55:13;;;;;;;29.20;12.75;;;;;;;;;;1924623;74;21026;-40
2021/12/11 09:57:43;;;;;;;22.17;11.38;;;;;;;;;;1924576;74;20991;-41
2021/12/11 10:00:13;;;;;;;25.12;13.83;;;;;;;;;;1924434;74;21526;-40
2021/12/11 10:02:41;;;;;;;19.75;10.55;;;;;;;;;;1924727;74;21064;-40
2021/12/11 10:05:29;;;;;;;18.30;11.30;;;;;;;;;;1924633;74;21026;-42
2021/12/11 10:08:01;;;;;;;22.35;12.10;;;;;;;;;;1921645;74;21035;-41
2021/12/11 10:10:19;;;;;;;23.12;11.88;;;;;;;;;;1922399;74;21567;-40
2021/12/11 10:12:49;;;;;;;20.77;11.75;;;;;;;;;;1923687;74;21143;-40
2021/12/11 10:15:19;;;;;;;21.33;12.55;;;;;;;;;;1924812;74;21085;-41
2021/12/11 10:17:48;;;;;;;24.15;12.78;;;;;;;;;;1924686;74;21147;-40
2021/12/11 10:20:21;;;;;;;22.25;12.20;;;;;;;;;;1921887;74;21062;-40
2021/12/11 10:22:51;;;;;;;24.18;13.18;;;;;;;;;;1924707;74;21058;-41
2021/12/11 10:25:21;;;;;;;26.93;11.40;;;;;;;;;;1924566;74;21023;-40
2021/12/11 10:27:50;;;;;;;21.87;13.50;;;;;;;;;;1924716;74;21617;-40
2021/12/11 10:30:20;;;;;;;23.40;12.98;;;;;;;;;;1924627;74;21096;-40
2021/12/11 10:32:49;;;;;;;20.27;11.85;;;;;;;;;;1924396;74;21019;-40
2021/12/11 10:35:19;;;;;;;23.60;12.15;;;;;;;;;;1924435;74;21007;-41
2021/12/11 10:37:48;;;;;;;24.63;13.00;;;;;;;;;;1923959;74;21136;-40
2021/12/11 10:40:18;;;;;;;25.82;12.60;;;;;;;;;;1924418;74;21035;-41
2021/12/11 10:42:48;;;;;;;24.30;14.47;;;;;;;;;;1923860;74;21112;-40
2021/12/11 10:45:17;;;;;;;22.17;12.28;;;;;;;;;;1924285;74;21257;-40
2021/12/11 10:47:50;;;;;;;19.48;11.97;;;;;;;;;;1924610;74;21023;-40
2021/12/11 10:50:20;;;;;;;18.50;10.72;;;;;;;;;;1907000;74;21063;-40
2021/12/11 10:52:50;;;;;;;20.55;11.68;;;;;;;;;;1905121;75;21063;-41
2021/12/11 10:55:20;;;;;;;29.20;11.18;;;;;;;;;;1905220;75;21020;-41
2021/12/11 10:57:50;;;;;;;18.45;11.03;;;;;;;;;;1905220;75;21465;-40
2021/12/11 11:00:20;;;;;;;24.05;12.28;;;;;;;;;;1905128;75;21011;-41
2021/12/11 11:02:49;;;;;;;24.87;12.88;;;;;;;;;;1904405;74;21093;-40
2021/12/11 11:05:19;;;;;;;22.37;12.10;;;;;;;;;;1905109;75;21137;-40
2021/12/11 11:07:48;;;;;;;21.12;10.05;;;;;;;;;;1905448;75;21038;-41
2021/12/11 11:10:18;;;;;;;23.77;10.80;;;;;;;;;;1905168;75;21054;-40
2021/12/11 11:12:48;;;;;;;34.27;14.25;;;;;;;;;;1905317;75;21019;-40
2021/12/11 11:15:20;;;;;;;21.20;11.83;;;;;;;;;;1905222;75;21152;-40
2021/12/11 11:17:48;;;;;;;24.55;11.70;;;;;;;;;;1905190;74;21485;-40
2021/12/11 11:20:18;;;;;;;22.27;12.85;;;;;;;;;;1905089;75;21039;-40
2021/12/11 11:22:48;;;;;;;21.27;11.05;;;;;;;;;;1905268;75;21036;-40
2021/12/11 11:25:21;;;;;;;20.82;10.35;;;;;;;;;;1905336;75;21089;-41
2021/12/11 11:27:52;;;;;;;19.05;10.70;;;;;;;;;;1905120;74;21091;-41
2021/12/11 11:30:21;;;;;;;19.57;10.85;;;;;;;;;;1905283;74;21015;-40
2021/12/11 11:32:50;;;;;;;22.20;12.63;;;;;;;;;;1905236;75;21093;-40
2021/12/11 11:35:20;;;;;;;22.13;12.40;;;;;;;;;;1905215;75;21044;-41
2021/12/11 11:37:50;;;;;;;22.95;11.68;;;;;;;;;;1905179;74;20992;-41
2021/12/11 11:40:20;;;;;;;18.45;11.88;;;;;;;;;;1905186;75;21474;-41
2021/12/11 11:42:49;;;;;;;24.85;13.93;;;;;;;;;;1905031;74;21097;-41
2021/12/11 11:45:18;;;;;;;25.05;13.05;;;;;;;;;;1904986;75;21136;-41
2021/12/11 11:47:47;;;;;;;22.20;13.93;;;;;;;;;;1905248;75;21003;-41
2021/12/11 11:50:17;;;;;;;21.60;10.93;;;;;;;;;;1918140;74;21176;-41
2021/12/11 11:52:46;;;;;;;26.65;12.65;;;;;;;;;;1924596;74;21019;-41
2021/12/11 11:55:16;;;;;;;22.40;12.63;;;;;;;;;;1924592;74;21014;-41
2021/12/11 11:57:47;;;;;;;19.23;10.60;;;;;;;;;;1924489;74;21077;-41
2021/12/11 12:00:17;;;;;;;19.15;11.28;;;;;;;;;;1924525;74;21563;-40
2021/12/11 12:02:46;;;;;;;24.85;14.85;;;;;;;;;;1924748;74;21143;-42
2021/12/11 12:05:14;;;;;;;28.32;15.75;;;;;;;;;;1924578;74;21100;-41
2021/12/11 12:07:45;;;;;;;23.22;12.82;;;;;;;;;;1924639;74;21023;-41
2021/12/11 12:10:14;;;;;;;23.80;12.68;;;;;;;;;;1924598;74;21492;-41
2021/12/11 12:12:43;;;;;;;27.17;14.20;;;;;;;;;;1924632;74;21039;-41
2021/12/11 12:15:13;;;;;;;32.75;17.02;;;;;;;;;;1924453;74;21006;-41
2021/12/11 12:17:42;;;;;;;28.67;17.10;;;;;;;;;;1924708;74;21042;-40
2021/12/11 12:20:12;;;;;;;20.17;11.10;;;;;;;;;;1924442;74;21018;-40
2021/12/11 12:22:42;;;;;;;20.02;9.43;;;;;;;;;;1924520;74;21027;-41
2021/12/11 12:25:11;;;;;;;19.73;9.38;;;;;;;;;;1924536;74;21042;-41
2021/12/11 12:27:42;;;;;;;22.02;10.65;;;;;;;;;;1924515;74;21026;-40
2021/12/11 12:30:12;;;;;;;25.90;11.35;;;;;;;;;;1924617;74;20999;-41
2021/12/11 12:32:41;;;;;;;18.20;10.88;;;;;;;;;;1924551;74;21023;-41
2021/12/11 12:35:11;;;;;;;23.55;12.55;;;;;;;;;;1924508;74;21039;-41
2021/12/11 12:37:40;;;;;;;24.85;12.23;;;;;;;;;;1924678;74;21022;-41
2021/12/11 12:40:10;;;;;;;20.17;12.30;;;;;;;;;;1924452;74;21137;-40
2021/12/11 12:42:41;;;;;;;24.80;13.68;;;;;;;;;;1924575;74;21079;-41
2021/12/11 12:45:20;;;;;;;33.10;17.87;;;;;;;;;;1924511;74;21081;-40
2021/12/11 12:47:52;;;;;;;32.40;15.75;;;;;;;;;;1924572;74;21089;-40
2021/12/11 12:50:22;;;;;;;43.55;19.15;;;;;;;;;;1914218;74;21057;-40
2021/12/11 12:52:51;;;;;;;32.23;15.63;;;;;;;;;;1905100;75;21043;-41
2021/12/11 12:55:39;;;;;;;27.22;14.70;;;;;;;;;;1905080;75;21020;-41
2021/12/11 12:58:09;;;;;;;26.45;15.03;;;;;;;;;;1905257;75;21079;-41
2021/12/11 13:00:45;;;;;;;20.52;11.93;;;;;;;;;;1905013;74;21039;-41
2021/12/11 13:03:18;;;;;;;20.37;12.20;;;;;;;;;;1905308;74;21016;-40
2021/12/11 13:05:48;;;;;;;17.60;11.48;;;;;;;;;;1905181;75;21043;-40
2021/12/11 13:08:18;;;;;;;86.87;43.85;;;;;;;;;;1905351;75;21074;-41
2021/12/11 13:10:47;;;;;;;127.22;63.78;;;;;;;;;;1904390;74;21019;-41
2021/12/11 13:13:17;;;;;;;112.75;64.85;;;;;;;;;;1905137;75;21023;-41
2021/12/11 13:15:50;;;;;;;85.67;53.05;;;;;;;;;;1905194;75;21081;-41
2021/12/11 13:18:20;;;;;;;35.75;21.33;;;;;;;;;;1905195;75;21028;-41
2021/12/11 13:21:02;;;;;;;25.60;15.03;;;;;;;;;;1905125;75;21011;-40
2021/12/11 13:23:26;;;;;;;29.23;16.07;;;;;;;;;;1904928;74;21101;-41
2021/12/11 13:25:56;;;;;;;21.95;14.15;;;;;;;;;;1905121;75;21105;-42
2021/12/11 13:28:26;;;;;;;25.45;14.23;;;;;;;;;;1905201;75;21039;-41
2021/12/11 13:30:56;;;;;;;29.52;13.80;;;;;;;;;;1905289;75;21043;-41
2021/12/11 13:33:26;;;;;;;39.45;17.10;;;;;;;;;;1904823;74;21020;-41
2021/12/11 13:35:56;;;;;;;36.40;19.32;;;;;;;;;;1905152;75;21039;-41
2021/12/11 13:38:26;;;;;;;38.63;20.80;;;;;;;;;;1905154;74;21047;-41
2021/12/11 13:40:56;;;;;;;41.80;20.97;;;;;;;;;;1905110;75;20999;-40
2021/12/11 13:43:25;;;;;;;35.13;18.50;;;;;;;;;;1905217;74;21109;-40
2021/12/11 13:45:54;;;;;;;41.40;19.62;;;;;;;;;;1905272;75;21035;-41
2021/12/11 13:48:23;;;;;;;35.78;17.62;;;;;;;;;;1905201;75;21114;-41
2021/12/11 13:50:56;;;;;;;39.70;18.65;;;;;;;;;;1905206;74;21137;-41
2021/12/11 13:53:25;;;;;;;33.00;17.30;;;;;;;;;;1904991;74;21298;-41
2021/12/11 13:55:55;;;;;;;29.32;16.30;;;;;;;;;;1905256;75;20992;-40
2021/12/11 13:58:23;;;;;;;33.63;15.15;;;;;;;;;;1905273;75;21101;-41
2021/12/11 14:00:57;;;;;;;32.55;15.75;;;;;;;;;;1905109;75;21122;-40
2021/12/11 14:03:26;;;;;;;36.65;16.30;;;;;;;;;;1905209;75;21146;-41
2021/12/11 14:05:58;;;;;;;37.75;16.30;;;;;;;;;;1905267;75;20995;-41
2021/12/11 14:08:27;;;;;;;38.50;17.60;;;;;;;;;;1905236;75;21020;-41
2021/12/11 14:10:56;;;;;;;38.13;17.05;;;;;;;;;;1905199;75;21481;-40
2021/12/11 14:13:25;;;;;;;34.18;16.48;;;;;;;;;;1905458;75;21100;-40
2021/12/11 14:15:55;;;;;;;28.25;14.73;;;;;;;;;;1905213;75;21027;-41
2021/12/11 14:18:24;;;;;;;30.23;15.95;;;;;;;;;;1905291;75;21073;-41
2021/12/11 14:20:54;;;;;;;37.28;15.95;;;;;;;;;;1905252;75;21086;-41
2021/12/11 14:23:24;;;;;;;34.03;17.02;;;;;;;;;;1905196;75;20992;-41
2021/12/11 14:25:52;;;;;;;36.17;17.37;;;;;;;;;;1905205;75;20992;-41
2021/12/11 14:28:24;;;;;;;37.93;18.32;;;;;;;;;;1905260;75;21023;-41
2021/12/11 14:30:57;;;;;;;50.67;19.32;;;;;;;;;;1905188;75;21541;-41
2021/12/11 14:33:26;;;;;;;39.98;19.95;;;;;;;;;;1905197;75;21110;-40
2021/12/11 14:35:55;;;;;;;51.88;23.38;;;;;;;;;;1905175;75;21043;-43
2021/12/11 14:38:23;;;;;;;48.00;22.65;;;;;;;;;;1905246;75;21089;-41
2021/12/11 14:40:53;;;;;;;35.13;18.48;;;;;;;;;;1905065;75;21040;-41
2021/12/11 14:43:22;;;;;;;47.35;22.37;;;;;;;;;;1905126;75;21556;-40
2021/12/11 14:45:52;;;;;;;37.63;20.75;;;;;;;;;;1905180;75;21031;-41
2021/12/11 14:48:21;;;;;;;50.60;22.75;;;;;;;;;;1905233;75;21008;-41
2021/12/11 14:50:51;;;;;;;48.17;20.25;;;;;;;;;;1911386;74;21062;-40